sensor_id;sensor_type;location;lat;lon;timestamp;temperature;humidity
22562;DHT22;11447;50.562;8.504;2023-06-04T00:00:07;16.20;49.30
22562;DHT22;11447;50.562;8.504;2023-06-04T00:02:34;16.30;49.60
22562;DHT22;11447;50.562;8.504;2023-06-04T00:05:01;16.10;49.50
22562;DHT22;11447;50.562;8.504;2023-06-04T00:07:28;16.10;49.70
22562;DHT22;11447;50.562;8.504;2023-06-04T00:09:57;16.00;49.90
22562;DHT22;11447;50.562;8.504;2023-06-04T00:12:23;15.80;50.60
22562;DHT22;11447;50.562;8.504;2023-06-04T00:14:50;15.90;50.80
22562;DHT22;11447;50.562;8.504;2023-06-04T00:17:21;15.80;50.80
22562;DHT22;11447;50.562;8.504;2023-06-04T00:19:50;15.80;51.40
22562;DHT22;11447;50.562;8.504;2023-06-04T00:22:17;15.80;51.40
22562;DHT22;11447;50.562;8.504;2023-06-04T00:24:46;15.70;52.10
22562;DHT22;11447;50.562;8.504;2023-06-04T00:27:13;15.70;52.60
22562;DHT22;11447;50.562;8.504;2023-06-04T00:29:42;15.70;52.50
22562;DHT22;11447;50.562;8.504;2023-06-04T00:32:09;15.60;52.50
22562;DHT22;11447;50.562;8.504;2023-06-04T00:34:36;15.60;52.70
22562;DHT22;11447;50.562;8.504;2023-06-04T00:37:03;15.50;53.20
22562;DHT22;11447;50.562;8.504;2023-06-04T00:39:29;15.40;53.90
22562;DHT22;11447;50.562;8.504;2023-06-04T00:41:56;15.40;53.80
22562;DHT22;11447;50.562;8.504;2023-06-04T00:44:23;15.40;53.60
22562;DHT22;11447;50.562;8.504;2023-06-04T00:46:51;15.30;53.40
22562;DHT22;11447;50.562;8.504;2023-06-04T00:49:20;15.20;54.00
22562;DHT22;11447;50.562;8.504;2023-06-04T00:51:47;15.20;54.30
22562;DHT22;11447;50.562;8.504;2023-06-04T00:54:14;15.30;54.50
22562;DHT22;11447;50.562;8.504;2023-06-04T00:56:42;15.20;54.60
22562;DHT22;11447;50.562;8.504;2023-06-04T00:59:09;15.10;54.70
22562;DHT22;11447;50.562;8.504;2023-06-04T01:04:15;15.10;54.70
22562;DHT22;11447;50.562;8.504;2023-06-04T01:06:43;15.00;54.20
22562;DHT22;11447;50.562;8.504;2023-06-04T01:09:13;15.00;54.00
22562;DHT22;11447;50.562;8.504;2023-06-04T01:11:40;15.00;54.10
22562;DHT22;11447;50.562;8.504;2023-06-04T01:14:08;14.90;54.60
22562;DHT22;11447;50.562;8.504;2023-06-04T01:16:36;14.90;54.90
22562;DHT22;11447;50.562;8.504;2023-06-04T01:19:10;14.90;55.30
22562;DHT22;11447;50.562;8.504;2023-06-04T01:21:48;14.90;55.20
22562;DHT22;11447;50.562;8.504;2023-06-04T01:24:17;14.80;55.30
22562;DHT22;11447;50.562;8.504;2023-06-04T01:26:47;14.80;55.40
22562;DHT22;11447;50.562;8.504;2023-06-04T01:29:14;14.70;55.80
22562;DHT22;11447;50.562;8.504;2023-06-04T01:31:41;14.70;55.40
22562;DHT22;11447;50.562;8.504;2023-06-04T01:34:08;14.70;54.50
22562;DHT22;11447;50.562;8.504;2023-06-04T01:36:37;14.70;54.10
22562;DHT22;11447;50.562;8.504;2023-06-04T01:39:06;14.50;54.60
22562;DHT22;11447;50.562;8.504;2023-06-04T01:41:32;14.40;54.70
22562;DHT22;11447;50.562;8.504;2023-06-04T01:43:59;14.40;54.90
22562;DHT22;11447;50.562;8.504;2023-06-04T01:46:25;14.50;54.40
22562;DHT22;11447;50.562;8.504;2023-06-04T01:48:52;14.60;54.40
22562;DHT22;11447;50.562;8.504;2023-06-04T01:51:19;14.60;54.40
22562;DHT22;11447;50.562;8.504;2023-06-04T01:53:46;14.50;55.10
22562;DHT22;11447;50.562;8.504;2023-06-04T01:56:12;14.50;55.50
22562;DHT22;11447;50.562;8.504;2023-06-04T01:58:41;14.60;55.90
22562;DHT22;11447;50.562;8.504;2023-06-04T02:01:08;14.30;57.00
22562;DHT22;11447;50.562;8.504;2023-06-04T02:03:36;14.40;57.40
22562;DHT22;11447;50.562;8.504;2023-06-04T02:06:04;14.20;57.60
22562;DHT22;11447;50.562;8.504;2023-06-04T02:08:31;14.30;57.40
22562;DHT22;11447;50.562;8.504;2023-06-04T02:10:59;14.20;57.10
22562;DHT22;11447;50.562;8.504;2023-06-04T02:13:26;14.20;58.00
22562;DHT22;11447;50.562;8.504;2023-06-04T02:15:53;14.10;58.10
22562;DHT22;11447;50.562;8.504;2023-06-04T02:18:19;14.20;57.70
22562;DHT22;11447;50.562;8.504;2023-06-04T02:20:52;14.20;57.00
22562;DHT22;11447;50.562;8.504;2023-06-04T02:23:19;14.20;58.10
22562;DHT22;11447;50.562;8.504;2023-06-04T02:25:46;14.00;58.40
22562;DHT22;11447;50.562;8.504;2023-06-04T02:28:13;13.90;58.20
22562;DHT22;11447;50.562;8.504;2023-06-04T02:30:39;14.10;57.70
22562;DHT22;11447;50.562;8.504;2023-06-04T02:33:06;14.00;57.70
22562;DHT22;11447;50.562;8.504;2023-06-04T02:35:36;13.90;57.10
22562;DHT22;11447;50.562;8.504;2023-06-04T02:38:03;14.00;57.00
22562;DHT22;11447;50.562;8.504;2023-06-04T02:40:30;13.90;58.00
22562;DHT22;11447;50.562;8.504;2023-06-04T02:42:59;13.90;58.30
22562;DHT22;11447;50.562;8.504;2023-06-04T02:45:26;13.90;59.00
22562;DHT22;11447;50.562;8.504;2023-06-04T02:47:55;13.80;59.30
22562;DHT22;11447;50.562;8.504;2023-06-04T02:50:22;13.80;59.20
22562;DHT22;11447;50.562;8.504;2023-06-04T02:52:50;13.80;59.00
22562;DHT22;11447;50.562;8.504;2023-06-04T02:55:16;13.70;59.20
22562;DHT22;11447;50.562;8.504;2023-06-04T02:57:45;13.70;58.20
22562;DHT22;11447;50.562;8.504;2023-06-04T03:00:13;13.80;57.40
22562;DHT22;11447;50.562;8.504;2023-06-04T03:02:41;13.70;57.20
22562;DHT22;11447;50.562;8.504;2023-06-04T03:05:11;13.50;57.30
22562;DHT22;11447;50.562;8.504;2023-06-04T03:07:39;13.50;58.90
22562;DHT22;11447;50.562;8.504;2023-06-04T03:10:07;13.40;59.80
22562;DHT22;11447;50.562;8.504;2023-06-04T03:12:36;13.50;59.80
22562;DHT22;11447;50.562;8.504;2023-06-04T03:15:03;13.50;60.20
22562;DHT22;11447;50.562;8.504;2023-06-04T03:17:30;13.30;60.40
22562;DHT22;11447;50.562;8.504;2023-06-04T03:20:01;13.40;60.20
22562;DHT22;11447;50.562;8.504;2023-06-04T03:22:27;13.40;60.20
22562;DHT22;11447;50.562;8.504;2023-06-04T03:24:54;13.40;60.30
22562;DHT22;11447;50.562;8.504;2023-06-04T03:27:23;13.30;60.40
22562;DHT22;11447;50.562;8.504;2023-06-04T03:29:50;13.30;60.60
22562;DHT22;11447;50.562;8.504;2023-06-04T03:32:16;13.20;61.20
22562;DHT22;11447;50.562;8.504;2023-06-04T03:34:43;13.20;61.00
22562;DHT22;11447;50.562;8.504;2023-06-04T03:37:10;13.20;61.50
22562;DHT22;11447;50.562;8.504;2023-06-04T03:39:37;13.10;61.40
22562;DHT22;11447;50.562;8.504;2023-06-04T03:42:06;13.10;61.80
22562;DHT22;11447;50.562;8.504;2023-06-04T03:44:35;13.10;61.80
22562;DHT22;11447;50.562;8.504;2023-06-04T03:47:01;13.10;61.30
22562;DHT22;11447;50.562;8.504;2023-06-04T03:49:28;13.00;62.10
22562;DHT22;11447;50.562;8.504;2023-06-04T03:51:55;13.10;61.70
22562;DHT22;11447;50.562;8.504;2023-06-04T03:54:22;13.10;61.60
22562;DHT22;11447;50.562;8.504;2023-06-04T03:56:49;13.00;61.20
22562;DHT22;11447;50.562;8.504;2023-06-04T03:59:15;13.00;61.90
22562;DHT22;11447;50.562;8.504;2023-06-04T04:01:44;12.90;61.90
22562;DHT22;11447;50.562;8.504;2023-06-04T04:04:13;13.00;61.70
22562;DHT22;11447;50.562;8.504;2023-06-04T04:06:40;12.90;61.40
22562;DHT22;11447;50.562;8.504;2023-06-04T04:09:07;13.00;61.20
22562;DHT22;11447;50.562;8.504;2023-06-04T04:11:34;12.90;61.40
22562;DHT22;11447;50.562;8.504;2023-06-04T04:14:03;12.80;61.90
22562;DHT22;11447;50.562;8.504;2023-06-04T04:16:32;12.90;61.30
22562;DHT22;11447;50.562;8.504;2023-06-04T04:19:03;12.90;61.00
22562;DHT22;11447;50.562;8.504;2023-06-04T04:21:30;13.00;61.40
22562;DHT22;11447;50.562;8.504;2023-06-04T04:23:59;13.00;61.20
22562;DHT22;11447;50.562;8.504;2023-06-04T04:26:26;13.00;60.80
22562;DHT22;11447;50.562;8.504;2023-06-04T04:28:57;12.90;60.90
22562;DHT22;11447;50.562;8.504;2023-06-04T04:31:26;12.90;61.00
22562;DHT22;11447;50.562;8.504;2023-06-04T04:33:55;12.90;61.30
22562;DHT22;11447;50.562;8.504;2023-06-04T04:36:21;12.90;61.20
22562;DHT22;11447;50.562;8.504;2023-06-04T04:38:50;13.00;61.00
22562;DHT22;11447;50.562;8.504;2023-06-04T04:41:21;13.10;61.50
22562;DHT22;11447;50.562;8.504;2023-06-04T04:43:49;13.00;61.40
22562;DHT22;11447;50.562;8.504;2023-06-04T04:46:16;13.00;62.00
22562;DHT22;11447;50.562;8.504;2023-06-04T04:48:42;13.00;62.10
22562;DHT22;11447;50.562;8.504;2023-06-04T04:51:11;13.20;61.50
22562;DHT22;11447;50.562;8.504;2023-06-04T04:53:40;13.20;61.20
22562;DHT22;11447;50.562;8.504;2023-06-04T04:56:07;13.30;60.90
22562;DHT22;11447;50.562;8.504;2023-06-04T04:58:38;13.30;60.80
22562;DHT22;11447;50.562;8.504;2023-06-04T05:01:05;13.40;60.80
22562;DHT22;11447;50.562;8.504;2023-06-04T05:03:32;13.40;60.40
22562;DHT22;11447;50.562;8.504;2023-06-04T05:06:01;13.50;60.20
22562;DHT22;11447;50.562;8.504;2023-06-04T05:08:32;13.60;59.90
22562;DHT22;11447;50.562;8.504;2023-06-04T05:11:01;13.60;60.00
22562;DHT22;11447;50.562;8.504;2023-06-04T05:13:28;13.70;59.70
22562;DHT22;11447;50.562;8.504;2023-06-04T05:15:57;13.80;59.20
22562;DHT22;11447;50.562;8.504;2023-06-04T05:18:24;14.00;58.10
22562;DHT22;11447;50.562;8.504;2023-06-04T05:20:57;14.20;56.30
22562;DHT22;11447;50.562;8.504;2023-06-04T05:23:24;14.30;55.40
22562;DHT22;11447;50.562;8.504;2023-06-04T05:25:51;14.40;54.40
22562;DHT22;11447;50.562;8.504;2023-06-04T05:28:20;14.60;54.30
22562;DHT22;11447;50.562;8.504;2023-06-04T05:30:51;14.70;53.50
22562;DHT22;11447;50.562;8.504;2023-06-04T05:33:25;14.70;52.80
22562;DHT22;11447;50.562;8.504;2023-06-04T05:35:52;14.60;53.60
22562;DHT22;11447;50.562;8.504;2023-06-04T05:38:20;14.80;53.10
22562;DHT22;11447;50.562;8.504;2023-06-04T05:40:47;15.00;53.40
22562;DHT22;11447;50.562;8.504;2023-06-04T05:43:14;15.20;53.10
22562;DHT22;11447;50.562;8.504;2023-06-04T05:45:40;15.30;52.60
22562;DHT22;11447;50.562;8.504;2023-06-04T05:48:10;15.60;52.20
22562;DHT22;11447;50.562;8.504;2023-06-04T05:50:39;15.80;51.80
22562;DHT22;11447;50.562;8.504;2023-06-04T05:53:05;17.20;48.10
22562;DHT22;11447;50.562;8.504;2023-06-04T05:55:32;20.70;42.70
22562;DHT22;11447;50.562;8.504;2023-06-04T19:15:42;22.20;35.10
22562;DHT22;11447;50.562;8.504;2023-06-04T19:18:08;22.30;35.80
22562;DHT22;11447;50.562;8.504;2023-06-04T19:20:35;22.30;35.70
22562;DHT22;11447;50.562;8.504;2023-06-04T19:23:04;22.40;35.90
22562;DHT22;11447;50.562;8.504;2023-06-04T19:25:31;22.30;35.90
22562;DHT22;11447;50.562;8.504;2023-06-04T19:27:58;22.40;36.10
22562;DHT22;11447;50.562;8.504;2023-06-04T19:30:27;22.20;36.50
22562;DHT22;11447;50.562;8.504;2023-06-04T19:32:54;22.10;36.60
22562;DHT22;11447;50.562;8.504;2023-06-04T19:35:21;22.20;36.60
22562;DHT22;11447;50.562;8.504;2023-06-04T19:37:47;22.00;36.80
22562;DHT22;11447;50.562;8.504;2023-06-04T19:40:14;22.00;36.70
22562;DHT22;11447;50.562;8.504;2023-06-04T19:42:44;22.00;37.20
22562;DHT22;11447;50.562;8.504;2023-06-04T19:45:13;21.90;37.40
22562;DHT22;11447;50.562;8.504;2023-06-04T19:47:42;21.70;37.60
22562;DHT22;11447;50.562;8.504;2023-06-04T19:50:09;21.80;37.50
22562;DHT22;11447;50.562;8.504;2023-06-04T19:52:37;21.80;37.60
22562;DHT22;11447;50.562;8.504;2023-06-04T19:55:04;21.60;37.70
22562;DHT22;11447;50.562;8.504;2023-06-04T19:57:33;21.50;37.80
22562;DHT22;11447;50.562;8.504;2023-06-04T19:59:59;21.60;38.00
22562;DHT22;11447;50.562;8.504;2023-06-04T20:02:29;21.40;38.10
22562;DHT22;11447;50.562;8.504;2023-06-04T20:04:58;21.40;38.30
22562;DHT22;11447;50.562;8.504;2023-06-04T20:07:27;21.30;38.30
22562;DHT22;11447;50.562;8.504;2023-06-04T20:09:56;21.20;38.60
22562;DHT22;11447;50.562;8.504;2023-06-04T20:12:23;21.00;39.20
22562;DHT22;11447;50.562;8.504;2023-06-04T20:14:50;20.90;39.30
22562;DHT22;11447;50.562;8.504;2023-06-04T20:17:17;20.70;39.90
22562;DHT22;11447;50.562;8.504;2023-06-04T20:19:44;20.60;39.90
22562;DHT22;11447;50.562;8.504;2023-06-04T20:22:15;20.70;40.50
22562;DHT22;11447;50.562;8.504;2023-06-04T20:24:44;20.60;40.50
22562;DHT22;11447;50.562;8.504;2023-06-04T20:27:13;20.50;40.70
22562;DHT22;11447;50.562;8.504;2023-06-04T20:29:43;20.30;41.30
22562;DHT22;11447;50.562;8.504;2023-06-04T20:32:12;20.20;41.50
22562;DHT22;11447;50.562;8.504;2023-06-04T20:34:39;20.10;41.50
22562;DHT22;11447;50.562;8.504;2023-06-04T20:37:06;20.20;41.70
22562;DHT22;11447;50.562;8.504;2023-06-04T20:39:37;20.20;41.70
22562;DHT22;11447;50.562;8.504;2023-06-04T20:42:06;20.20;42.20
22562;DHT22;11447;50.562;8.504;2023-06-04T20:44:34;20.20;42.40
22562;DHT22;11447;50.562;8.504;2023-06-04T20:47:03;20.20;42.50
22562;DHT22;11447;50.562;8.504;2023-06-04T20:49:31;20.30;42.50
22562;DHT22;11447;50.562;8.504;2023-06-04T20:52:00;20.20;42.80
22562;DHT22;11447;50.562;8.504;2023-06-04T20:54:27;20.10;42.40
22562;DHT22;11447;50.562;8.504;2023-06-04T20:56:56;19.90;42.00
22562;DHT22;11447;50.562;8.504;2023-06-04T20:59:23;19.80;41.80
22562;DHT22;11447;50.562;8.504;2023-06-04T21:01:49;19.90;42.00
22562;DHT22;11447;50.562;8.504;2023-06-04T21:04:17;19.90;42.20
22562;DHT22;11447;50.562;8.504;2023-06-04T21:06:44;19.90;42.10
22562;DHT22;11447;50.562;8.504;2023-06-04T21:09:11;19.90;42.00
22562;DHT22;11447;50.562;8.504;2023-06-04T21:11:37;19.80;42.00
22562;DHT22;11447;50.562;8.504;2023-06-04T21:14:06;19.70;42.20
22562;DHT22;11447;50.562;8.504;2023-06-04T21:16:36;19.80;42.80
22562;DHT22;11447;50.562;8.504;2023-06-04T21:19:02;19.60;42.80
22562;DHT22;11447;50.562;8.504;2023-06-04T21:21:31;19.50;42.90
22562;DHT22;11447;50.562;8.504;2023-06-04T21:23:58;19.60;43.20
22562;DHT22;11447;50.562;8.504;2023-06-04T21:26:27;19.50;43.30
22562;DHT22;11447;50.562;8.504;2023-06-04T21:28:55;19.50;43.50
22562;DHT22;11447;50.562;8.504;2023-06-04T21:31:28;19.40;43.50
22562;DHT22;11447;50.562;8.504;2023-06-04T21:33:55;19.30;44.10
22562;DHT22;11447;50.562;8.504;2023-06-04T21:36:24;19.20;44.60
22562;DHT22;11447;50.562;8.504;2023-06-04T21:38:51;19.10;44.80
22562;DHT22;11447;50.562;8.504;2023-06-04T21:41:17;19.10;45.20
22562;DHT22;11447;50.562;8.504;2023-06-04T21:43:44;19.00;45.30
22562;DHT22;11447;50.562;8.504;2023-06-04T21:46:11;18.90;46.00
22562;DHT22;11447;50.562;8.504;2023-06-04T21:48:40;18.90;46.10
22562;DHT22;11447;50.562;8.504;2023-06-04T21:51:09;18.80;46.10
22562;DHT22;11447;50.562;8.504;2023-06-04T21:53:37;18.70;46.20
22562;DHT22;11447;50.562;8.504;2023-06-04T21:56:06;18.60;46.30
22562;DHT22;11447;50.562;8.504;2023-06-04T21:58:33;18.50;46.10
22562;DHT22;11447;50.562;8.504;2023-06-04T22:01:00;18.60;46.20
22562;DHT22;11447;50.562;8.504;2023-06-04T22:03:26;18.60;46.20
22562;DHT22;11447;50.562;8.504;2023-06-04T22:05:53;18.50;46.30
22562;DHT22;11447;50.562;8.504;2023-06-04T22:08:20;18.60;46.40
22562;DHT22;11447;50.562;8.504;2023-06-04T22:10:46;18.50;47.20
22562;DHT22;11447;50.562;8.504;2023-06-04T22:13:13;18.40;47.50
22562;DHT22;11447;50.562;8.504;2023-06-04T22:15:40;18.30;47.20
22562;DHT22;11447;50.562;8.504;2023-06-04T22:18:06;18.30;47.40
22562;DHT22;11447;50.562;8.504;2023-06-04T22:20:33;18.20;47.50
22562;DHT22;11447;50.562;8.504;2023-06-04T22:23:02;18.10;47.80
22562;DHT22;11447;50.562;8.504;2023-06-04T22:25:31;18.10;47.50
22562;DHT22;11447;50.562;8.504;2023-06-04T22:27:58;18.10;47.50
22562;DHT22;11447;50.562;8.504;2023-06-04T22:30:25;18.00;47.80
22562;DHT22;11447;50.562;8.504;2023-06-04T22:32:54;17.90;48.40
22562;DHT22;11447;50.562;8.504;2023-06-04T22:35:21;17.90;48.90
22562;DHT22;11447;50.562;8.504;2023-06-04T22:37:47;17.80;48.80
22562;DHT22;11447;50.562;8.504;2023-06-04T22:40:14;17.70;49.10
22562;DHT22;11447;50.562;8.504;2023-06-04T22:42:40;17.70;49.30
22562;DHT22;11447;50.562;8.504;2023-06-04T22:45:07;17.60;49.50
22562;DHT22;11447;50.562;8.504;2023-06-04T22:47:34;17.60;50.10
22562;DHT22;11447;50.562;8.504;2023-06-04T22:50:01;17.40;50.40
22562;DHT22;11447;50.562;8.504;2023-06-04T22:52:28;17.40;50.80
22562;DHT22;11447;50.562;8.504;2023-06-04T22:54:55;17.40;51.00
22562;DHT22;11447;50.562;8.504;2023-06-04T22:57:24;17.30;51.20
22562;DHT22;11447;50.562;8.504;2023-06-04T22:59:51;17.20;51.40
22562;DHT22;11447;50.562;8.504;2023-06-04T23:02:18;17.20;51.70
22562;DHT22;11447;50.562;8.504;2023-06-04T23:04:45;17.10;52.10
22562;DHT22;11447;50.562;8.504;2023-06-04T23:07:12;17.10;52.50
22562;DHT22;11447;50.562;8.504;2023-06-04T23:09:41;17.00;52.60
22562;DHT22;11447;50.562;8.504;2023-06-04T23:12:07;17.00;52.60
22562;DHT22;11447;50.562;8.504;2023-06-04T23:14:35;16.90;52.40
22562;DHT22;11447;50.562;8.504;2023-06-04T23:17:01;16.70;52.10
22562;DHT22;11447;50.562;8.504;2023-06-04T23:19:33;16.70;52.10
22562;DHT22;11447;50.562;8.504;2023-06-04T23:22:02;16.90;52.20
22562;DHT22;11447;50.562;8.504;2023-06-04T23:24:28;16.60;52.50
22562;DHT22;11447;50.562;8.504;2023-06-04T23:26:55;16.60;52.30
22562;DHT22;11447;50.562;8.504;2023-06-04T23:29:22;16.50;52.30
22562;DHT22;11447;50.562;8.504;2023-06-04T23:31:48;16.60;52.30
22562;DHT22;11447;50.562;8.504;2023-06-04T23:34:15;16.50;52.50
22562;DHT22;11447;50.562;8.504;2023-06-04T23:36:44;16.40;53.20
22562;DHT22;11447;50.562;8.504;2023-06-04T23:39:10;16.30;53.20
22562;DHT22;11447;50.562;8.504;2023-06-04T23:41:37;16.30;53.80
22562;DHT22;11447;50.562;8.504;2023-06-04T23:44:04;16.20;54.50
22562;DHT22;11447;50.562;8.504;2023-06-04T23:46:30;16.20;54.10
22562;DHT22;11447;50.562;8.504;2023-06-04T23:48:59;16.20;54.10
22562;DHT22;11447;50.562;8.504;2023-06-04T23:51:26;16.10;54.10
22562;DHT22;11447;50.562;8.504;2023-06-04T23:53:53;16.00;54.20
22562;DHT22;11447;50.562;8.504;2023-06-04T23:56:22;16.00;54.20
22562;DHT22;11447;50.562;8.504;2023-06-04T23:58:49;15.80;53.90
